Time;durP1;ratioP1;P1;durP2;ratioP2;P2;SDS_P1;SDS_P2;PMS_P1;PMS_P2;Temp;Humidity;BMP_temperature;BMP_pressure;BME280_temperature;BME280_humidity;BME280_pressure;Samples;Min_cycle;Max_cycle;Signal;HPM_P1;HPM_P2
2023/12/22 00:01:05;;;;;;;0.67;0.67;;;;;;;3.62;100.00;98751.66;5053082;28;20311;-75
2023/12/22 00:03:30;;;;;;;0.50;0.50;;;;;;;3.57;100.00;98740.88;5065130;28;20232;-74
2023/12/22 00:05:55;;;;;;;0.57;0.57;;;;;;;3.63;100.00;98739.75;5053709;28;20192;-73
2023/12/22 00:08:21;;;;;;;0.30;0.30;;;;;;;3.65;100.00;98736.25;5063528;28;20208;-73
2023/12/22 00:10:47;;;;;;;0.50;0.50;;;;;;;3.63;100.00;98758.38;5049467;28;20232;-72
2023/12/22 00:13:12;;;;;;;2.00;0.80;;;;;;;3.74;100.00;98757.88;5057048;28;20174;-70
2023/12/22 00:15:37;;;;;;;0.90;0.60;;;;;;;3.75;100.00;98736.63;5061798;28;20205;-73
2023/12/22 00:18:03;;;;;;;1.30;0.73;;;;;;;3.67;100.00;98733.63;5062728;28;20219;-71
2023/12/22 00:20:28;;;;;;;1.60;0.50;;;;;;;3.69;100.00;98725.03;5052948;28;20229;-71
2023/12/22 00:22:54;;;;;;;0.60;0.40;;;;;;;3.60;100.00;98725.47;5065534;28;20569;-70
2023/12/22 00:25:19;;;;;;;0.63;0.50;;;;;;;3.59;100.00;98734.00;5060143;28;20223;-71
2023/12/22 00:27:44;;;;;;;0.93;0.70;;;;;;;3.58;100.00;98736.63;5069419;28;20173;-71
2023/12/22 00:30:10;;;;;;;1.63;0.50;;;;;;;3.55;100.00;98728.22;5021874;27;20586;-70
2023/12/22 00:32:36;;;;;;;0.80;0.70;;;;;;;3.52;100.00;98715.69;5031037;28;20177;-70
2023/12/22 00:35:02;;;;;;;0.70;0.70;;;;;;;3.63;100.00;98730.41;5059964;28;20266;-70
2023/12/22 00:37:27;;;;;;;2.93;0.60;;;;;;;3.76;100.00;98742.53;5062430;28;20185;-71
2023/12/22 00:39:52;;;;;;;0.60;0.60;;;;;;;3.82;100.00;98750.69;5059837;28;20192;-71
2023/12/22 00:42:17;;;;;;;0.83;0.83;;;;;;;3.99;100.00;98761.78;5051765;28;20228;-70
2023/12/22 00:44:43;;;;;;;2.50;0.70;;;;;;;4.08;100.00;98796.13;5058030;28;20604;-69
2023/12/22 00:47:08;;;;;;;0.70;0.60;;;;;;;4.12;100.00;98777.25;5064564;28;20184;-70
2023/12/22 00:49:33;;;;;;;1.63;0.70;;;;;;;3.98;100.00;98766.03;5059276;28;20289;-70
2023/12/22 00:51:58;;;;;;;2.10;0.80;;;;;;;4.05;100.00;98769.09;5068896;28;20217;-71
2023/12/22 00:54:24;;;;;;;1.77;1.00;;;;;;;4.08;100.00;98751.16;5066983;28;20280;-71
2023/12/22 00:56:50;;;;;;;2.07;0.77;;;;;;;4.11;100.00;98765.44;5053899;28;20173;-70
2023/12/22 00:59:15;;;;;;;0.93;0.57;;;;;;;4.07;100.00;98769.88;5051981;28;20188;-70
2023/12/22 01:01:41;;;;;;;1.73;0.70;;;;;;;4.10;100.00;98726.44;5044388;28;20224;-70
2023/12/22 01:04:06;;;;;;;1.23;0.87;;;;;;;4.02;100.00;98729.38;5049405;28;20958;-69
2023/12/22 01:06:31;;;;;;;1.17;0.70;;;;;;;4.02;100.00;98752.28;5050946;28;20195;-70
2023/12/22 01:08:56;;;;;;;2.17;0.83;;;;;;;4.06;100.00;98777.56;5052899;28;20267;-69
2023/12/22 01:11:22;;;;;;;1.33;0.80;;;;;;;4.11;100.00;98768.00;5044386;28;20583;-70
2023/12/22 01:13:47;;;;;;;2.00;0.87;;;;;;;4.07;100.00;98762.22;5051676;28;20184;-70
2023/12/22 01:16:12;;;;;;;1.73;0.90;;;;;;;4.12;100.00;98755.19;5057550;28;20189;-71
2023/12/22 01:18:39;;;;;;;0.73;0.50;;;;;;;4.03;100.00;98769.19;5071543;28;20223;-71
2023/12/22 01:21:05;;;;;;;0.70;0.70;;;;;;;4.04;100.00;98768.28;5051613;28;20224;-70
2023/12/22 01:23:30;;;;;;;1.03;0.73;;;;;;;4.07;100.00;98779.19;5059695;28;20192;-69
2023/12/22 01:25:55;;;;;;;0.53;0.53;;;;;;;4.14;100.00;98790.72;5053166;28;20174;-69
2023/12/22 01:28:21;;;;;;;1.97;0.80;;;;;;;4.14;100.00;98796.66;5051414;28;20197;-69
2023/12/22 01:30:47;;;;;;;1.40;0.90;;;;;;;4.28;100.00;98806.16;5047670;28;20257;-69
2023/12/22 01:33:12;;;;;;;0.70;0.70;;;;;;;4.30;100.00;98834.09;5062309;28;20185;-69
2023/12/22 01:35:37;;;;;;;1.43;0.80;;;;;;;4.34;100.00;98825.38;5068687;28;20203;-69
2023/12/22 01:38:03;;;;;;;0.93;0.70;;;;;;;4.32;100.00;98839.94;5070756;28;20186;-72
2023/12/22 01:40:28;;;;;;;1.10;0.60;;;;;;;4.36;100.00;98856.69;5062174;28;20297;-70
2023/12/22 01:42:53;;;;;;;2.10;1.07;;;;;;;4.27;100.00;98845.25;5076001;28;20214;-69
2023/12/22 01:45:19;;;;;;;0.80;0.80;;;;;;;4.23;100.00;98846.28;5069033;28;20186;-69
2023/12/22 01:47:46;;;;;;;1.33;1.00;;;;;;;4.27;100.00;98846.97;5071185;28;20185;-70
2023/12/22 01:50:13;;;;;;;3.40;1.00;;;;;;;4.20;100.00;98838.78;5061004;28;20186;-68
2023/12/22 01:52:41;;;;;;;1.73;0.60;;;;;;;4.20;100.00;98838.78;5069886;28;20267;-69
2023/12/22 01:55:10;;;;;;;1.73;0.70;;;;;;;4.22;100.00;98842.09;5070930;28;20341;-69
2023/12/22 01:57:36;;;;;;;1.53;0.60;;;;;;;4.20;100.00;98841.34;5069947;28;20728;-69
2023/12/22 02:00:02;;;;;;;2.17;0.80;;;;;;;4.26;100.00;98847.88;5069917;28;20273;-69
2023/12/22 02:02:27;;;;;;;1.83;1.00;;;;;;;4.19;100.00;98829.50;5060043;28;20215;-69
2023/12/22 02:04:53;;;;;;;0.90;0.70;;;;;;;4.25;100.00;98836.84;5064529;28;20187;-70
2023/12/22 02:07:19;;;;;;;1.13;0.60;;;;;;;4.29;100.00;98838.38;5062682;28;20180;-70
2023/12/22 02:09:44;;;;;;;2.00;1.07;;;;;;;4.38;100.00;98848.97;5071008;28;20192;-69
2023/12/22 02:12:10;;;;;;;0.90;0.70;;;;;;;4.36;100.00;98831.22;5076355;28;20226;-69
2023/12/22 02:14:35;;;;;;;1.47;0.73;;;;;;;4.32;100.00;98828.00;5069432;28;20271;-69
2023/12/22 02:17:25;;;;;;;1.63;0.60;;;;;;;4.35;100.00;98820.25;5070616;28;20529;-70
2023/12/22 02:19:51;;;;;;;1.47;0.87;;;;;;;4.34;100.00;98826.22;5069924;28;20244;-70
2023/12/22 02:22:16;;;;;;;1.23;0.83;;;;;;;4.36;100.00;98826.13;5060452;28;20610;-69
2023/12/22 02:24:42;;;;;;;0.60;0.60;;;;;;;4.27;100.00;98819.78;5071500;28;20237;-69
2023/12/22 02:27:19;;;;;;;3.50;1.20;;;;;;;4.26;100.00;98813.03;5070490;28;20579;-70
2023/12/22 02:30:03;;;;;;;1.10;0.90;;;;;;;4.28;100.00;98820.59;5073094;28;20190;-70
2023/12/22 02:32:34;;;;;;;2.10;0.70;;;;;;;4.32;100.00;98834.84;5046659;28;20638;-69
2023/12/22 02:35:04;;;;;;;1.60;0.60;;;;;;;4.33;100.00;98811.84;5073980;28;20294;-69
2023/12/22 02:37:32;;;;;;;2.70;1.00;;;;;;;4.39;100.00;98826.00;5074675;28;20187;-71
2023/12/22 02:39:58;;;;;;;3.03;0.90;;;;;;;4.41;100.00;98831.00;5074592;28;20187;-69
2023/12/22 02:42:29;;;;;;;1.00;0.90;;;;;;;4.55;100.00;98818.41;5060119;28;20307;-69
2023/12/22 02:44:55;;;;;;;1.30;0.80;;;;;;;4.56;100.00;98807.31;5041099;28;20200;-71
2023/12/22 02:47:20;;;;;;;2.33;0.77;;;;;;;4.59;100.00;98806.34;5055010;28;20291;-69
2023/12/22 02:49:46;;;;;;;3.60;0.83;;;;;;;4.64;100.00;98815.41;5055303;28;20184;-69
2023/12/22 02:52:11;;;;;;;1.80;1.33;;;;;;;4.63;100.00;98823.13;5045755;28;20246;-69
2023/12/22 02:54:39;;;;;;;1.70;0.90;;;;;;;4.63;100.00;98823.13;5069220;28;20666;-70
2023/12/22 02:57:05;;;;;;;1.90;0.80;;;;;;;4.54;100.00;98798.94;5072866;28;20637;-69
2023/12/22 02:59:30;;;;;;;2.33;1.00;;;;;;;4.54;100.00;98793.84;5072242;28;20184;-71
2023/12/22 03:01:55;;;;;;;1.97;1.00;;;;;;;4.57;100.00;98788.59;5079025;28;20220;-70
2023/12/22 03:04:20;;;;;;;6.60;1.43;;;;;;;4.41;100.00;98785.19;5072642;28;20229;-70
2023/12/22 03:06:46;;;;;;;2.97;1.17;;;;;;;4.50;100.00;98784.72;5072872;28;20187;-69
2023/12/22 03:09:11;;;;;;;4.07;1.10;;;;;;;4.56;100.00;98786.13;5074077;28;20216;-69
2023/12/22 03:11:36;;;;;;;2.33;1.10;;;;;;;4.56;100.00;98801.41;5076139;28;20754;-69
2023/12/22 03:14:02;;;;;;;2.97;1.37;;;;;;;4.66;100.00;98789.84;5076487;28;20191;-68
2023/12/22 03:16:27;;;;;;;3.57;1.43;;;;;;;4.66;100.00;98790.69;5072438;28;20187;-69
2023/12/22 03:18:52;;;;;;;4.17;1.77;;;;;;;4.70;100.00;98781.13;5072988;28;20184;-69
2023/12/22 03:21:19;;;;;;;5.17;1.70;;;;;;;4.64;100.00;98784.84;5065093;28;20237;-68
2023/12/22 03:23:44;;;;;;;4.10;1.40;;;;;;;4.63;100.00;98770.44;5071851;28;20179;-69
2023/12/22 03:26:09;;;;;;;2.23;1.00;;;;;;;4.62;100.00;98760.34;5073079;28;20183;-69
2023/12/22 03:28:35;;;;;;;2.97;1.07;;;;;;;4.65;100.00;98780.56;5070859;28;20215;-70
2023/12/22 03:31:00;;;;;;;3.43;1.30;;;;;;;4.66;100.00;98790.69;5065114;28;20249;-70
2023/12/22 03:33:25;;;;;;;4.40;1.30;;;;;;;4.74;100.00;98784.34;5080943;28;20582;-69
2023/12/22 03:35:50;;;;;;;3.93;1.73;;;;;;;4.78;100.00;98796.84;5073319;28;20215;-69
2023/12/22 03:38:16;;;;;;;3.07;1.33;;;;;;;4.76;100.00;98795.28;5072610;28;20187;-70
2023/12/22 03:40:41;;;;;;;2.67;1.13;;;;;;;4.66;100.00;98802.59;5060501;28;20235;-71
2023/12/22 03:43:06;;;;;;;2.67;1.13;;;;;;;4.68;100.00;98795.69;5052989;28;20238;-72
2023/12/22 03:45:31;;;;;;;3.17;1.10;;;;;;;4.72;100.00;98793.81;5053975;28;20200;-70
2023/12/22 03:47:57;;;;;;;1.83;1.10;;;;;;;4.76;100.00;98768.06;5054386;28;20190;-70
2023/12/22 03:50:22;;;;;;;2.67;1.07;;;;;;;4.71;100.00;98774.34;5047864;28;20298;-70
2023/12/22 03:52:47;;;;;;;2.43;0.93;;;;;;;4.73;100.00;98782.72;5066848;28;20209;-69
2023/12/22 03:55:12;;;;;;;3.70;1.30;;;;;;;4.68;100.00;98772.78;5065444;28;20567;-69
2023/12/22 03:57:38;;;;;;;4.13;1.00;;;;;;;4.61;100.00;98756.16;5051924;28;20200;-69
2023/12/22 04:00:04;;;;;;;4.00;1.33;;;;;;;4.58;100.00;98766.50;5067561;27;20187;-70
2023/12/22 04:02:29;;;;;;;6.37;1.60;;;;;;;4.63;100.00;98767.91;5072096;28;20207;-70
2023/12/22 04:04:54;;;;;;;4.13;1.20;;;;;;;4.58;100.00;98735.94;5067877;28;20184;-70
2023/12/22 04:07:20;;;;;;;5.70;1.43;;;;;;;4.55;100.00;98754.72;5065592;28;20210;-69
2023/12/22 04:09:45;;;;;;;2.47;1.67;;;;;;;4.59;100.00;98758.78;5054173;28;20271;-69
2023/12/22 04:12:10;;;;;;;4.33;1.40;;;;;;;4.62;100.00;98776.44;5058788;28;20223;-69
2023/12/22 04:14:35;;;;;;;4.83;1.20;;;;;;;4.59;100.00;98784.25;5070088;28;20295;-68
2023/12/22 04:17:01;;;;;;;7.20;1.80;;;;;;;4.56;100.00;98788.69;5072559;28;20183;-69
2023/12/22 04:19:26;;;;;;;1.77;0.90;;;;;;;4.61;100.00;98797.72;5071717;28;20247;-68
2023/12/22 04:21:51;;;;;;;3.87;1.07;;;;;;;4.60;100.00;98782.50;5076755;28;20771;-69
2023/12/22 04:24:17;;;;;;;1.60;0.90;;;;;;;4.63;100.00;98785.72;5073523;28;20213;-69
2023/12/22 04:26:42;;;;;;;3.30;1.77;;;;;;;4.64;100.00;98789.94;5072263;28;20176;-69
2023/12/22 04:29:07;;;;;;;3.50;1.10;;;;;;;4.72;100.00;98806.56;5071357;28;20292;-71
2023/12/22 04:31:32;;;;;;;5.53;1.80;;;;;;;4.77;100.00;98804.59;5041707;27;20694;-68
2023/12/22 04:33:58;;;;;;;3.50;1.20;;;;;;;4.82;100.00;98813.63;5056093;28;20172;-69
2023/12/22 04:36:23;;;;;;;4.50;1.17;;;;;;;4.86;100.00;98806.66;5071267;28;20191;-68
2023/12/22 04:38:48;;;;;;;3.23;1.10;;;;;;;4.97;100.00;98809.50;5071823;28;20292;-68
2023/12/22 04:41:13;;;;;;;1.77;0.83;;;;;;;4.99;100.00;98806.84;5071264;28;20227;-69
2023/12/22 04:43:39;;;;;;;2.30;0.80;;;;;;;5.08;100.00;98805.53;5060846;28;20290;-69
2023/12/22 04:46:04;;;;;;;2.23;1.00;;;;;;;5.07;100.00;98812.34;5072564;28;20554;-67
2023/12/22 04:48:29;;;;;;;3.90;1.27;;;;;;;5.16;100.00;98814.44;5069209;28;20172;-67
2023/12/22 04:50:55;;;;;;;4.03;1.30;;;;;;;5.23;100.00;98826.84;5063816;28;20296;-69
2023/12/22 04:53:20;;;;;;;4.50;1.33;;;;;;;5.27;100.00;98824.06;5070080;28;20184;-69
2023/12/22 04:55:45;;;;;;;2.70;1.47;;;;;;;5.31;100.00;98817.88;5070991;28;20227;-69
2023/12/22 04:58:11;;;;;;;5.33;1.23;;;;;;;5.31;100.00;98833.19;5070281;28;20181;-68
2023/12/22 05:00:36;;;;;;;3.10;1.47;;;;;;;5.30;100.00;98836.63;5066759;28;20246;-69
2023/12/22 05:03:01;;;;;;;4.73;1.43;;;;;;;5.36;100.00;98816.81;5082888;28;20228;-68
2023/12/22 05:05:27;;;;;;;2.93;1.00;;;;;;;5.22;100.00;98820.09;5072262;28;20188;-68
2023/12/22 05:07:52;;;;;;;6.73;1.40;;;;;;;5.19;100.00;98831.28;5069780;28;20230;-68
2023/12/22 05:10:17;;;;;;;2.90;1.30;;;;;;;5.20;100.00;98827.00;5063948;28;20278;-68
2023/12/22 05:12:43;;;;;;;5.40;1.43;;;;;;;5.23;100.00;98832.75;5067888;28;20187;-68
2023/12/22 05:15:08;;;;;;;5.03;1.63;;;;;;;5.16;100.00;98846.75;5061917;28;20220;-68
2023/12/22 05:17:34;;;;;;;3.23;1.67;;;;;;;5.08;100.00;98854.78;5064547;28;20178;-70
2023/12/22 05:19:59;;;;;;;3.93;1.17;;;;;;;5.03;100.00;98856.75;5052329;28;20228;-69
2023/12/22 05:22:24;;;;;;;5.90;1.27;;;;;;;5.01;100.00;98848.34;5057141;28;20221;-70
2023/12/22 05:24:49;;;;;;;2.57;1.30;;;;;;;4.98;100.00;98839.13;5052356;28;20174;-68
2023/12/22 05:27:15;;;;;;;4.43;1.80;;;;;;;4.88;100.00;98832.88;5051148;28;20198;-69
2023/12/22 05:29:40;;;;;;;2.70;1.13;;;;;;;4.80;100.00;98842.63;5050465;28;20204;-68
2023/12/22 05:32:06;;;;;;;6.67;1.50;;;;;;;4.79;100.00;98849.47;5057239;28;20232;-67
2023/12/22 05:34:31;;;;;;;2.33;1.10;;;;;;;4.81;100.00;98847.66;5050575;28;20243;-68
2023/12/22 05:36:57;;;;;;;1.97;0.83;;;;;;;4.76;100.00;98856.44;5050067;28;20573;-69
2023/12/22 05:39:22;;;;;;;5.83;1.30;;;;;;;4.78;100.00;98872.47;5051936;28;20653;-68
2023/12/22 05:41:47;;;;;;;1.73;1.17;;;;;;;4.82;100.00;98858.66;5055280;28;20240;-68
2023/12/22 05:44:12;;;;;;;6.40;1.10;;;;;;;4.85;100.00;98854.25;5050505;28;20209;-68
2023/12/22 05:46:38;;;;;;;3.87;1.23;;;;;;;4.83;100.00;98845.84;5051592;28;20554;-66
2023/12/22 05:49:03;;;;;;;4.87;1.10;;;;;;;4.76;100.00;98844.50;5051760;28;20208;-67
2023/12/22 05:51:29;;;;;;;1.80;1.13;;;;;;;4.83;100.00;98853.50;5052500;28;20228;-67
2023/12/22 05:53:54;;;;;;;3.53;1.33;;;;;;;4.81;100.00;98855.31;5059135;28;20208;-67
2023/12/22 05:56:20;;;;;;;4.67;1.50;;;;;;;4.89;100.00;98879.56;5068130;28;20657;-68
2023/12/22 05:58:47;;;;;;;7.77;1.80;;;;;;;4.96;100.00;98894.47;5049985;28;20184;-69
2023/12/22 06:01:18;;;;;;;4.97;2.07;;;;;;;4.97;100.00;98885.94;5042588;28;20749;-67
2023/12/22 06:03:48;;;;;;;2.73;1.57;;;;;;;4.95;100.00;98857.16;5057481;28;20640;-68
2023/12/22 06:06:13;;;;;;;5.83;1.63;;;;;;;4.89;100.00;98864.28;5050511;28;20260;-67
2023/12/22 06:08:39;;;;;;;5.33;1.90;;;;;;;4.86;100.00;98870.34;5051083;28;20606;-67
2023/12/22 06:11:05;;;;;;;5.47;2.10;;;;;;;4.79;100.00;98866.50;5065175;28;20559;-68
2023/12/22 06:13:32;;;;;;;6.30;1.63;;;;;;;4.74;100.00;98855.69;5060114;28;20243;-71
2023/12/22 06:15:57;;;;;;;1.70;1.10;;;;;;;4.64;100.00;98868.91;5051654;28;20203;-68
2023/12/22 06:18:22;;;;;;;4.63;1.43;;;;;;;4.67;100.00;98868.72;5050818;28;20211;-69
2023/12/22 06:20:48;;;;;;;3.17;1.33;;;;;;;4.68;100.00;98862.72;5042220;28;20299;-68
2023/12/22 06:23:13;;;;;;;5.00;1.80;;;;;;;4.71;100.00;98853.31;5059418;28;20172;-68
2023/12/22 06:25:38;;;;;;;7.10;1.93;;;;;;;4.72;100.00;98854.94;5070329;28;20180;-68
2023/12/22 06:28:04;;;;;;;4.10;1.67;;;;;;;4.74;100.00;98856.53;5070420;28;20180;-68
2023/12/22 06:30:30;;;;;;;4.50;1.50;;;;;;;4.75;100.00;98870.06;5063432;28;20247;-69
2023/12/22 06:32:55;;;;;;;4.70;1.70;;;;;;;4.71;100.00;98863.50;5082526;28;20207;-68
2023/12/22 06:35:23;;;;;;;5.83;1.93;;;;;;;4.64;100.00;98865.50;5070200;28;20243;-69
2023/12/22 06:37:49;;;;;;;7.60;1.90;;;;;;;4.73;100.00;98874.44;5069077;28;20208;-68
2023/12/22 06:40:15;;;;;;;6.23;1.97;;;;;;;4.77;100.00;98881.00;5047044;28;20273;-69
2023/12/22 06:42:40;;;;;;;8.13;2.00;;;;;;;4.80;100.00;98870.66;5063236;28;20284;-68
2023/12/22 06:45:05;;;;;;;7.77;2.20;;;;;;;4.84;100.00;98872.97;5065873;28;20549;-68
2023/12/22 06:47:31;;;;;;;5.37;1.90;;;;;;;4.92;100.00;98871.78;5070311;28;20216;-70
2023/12/22 06:49:56;;;;;;;12.23;2.27;;;;;;;4.96;100.00;98868.16;5053182;28;20185;-69
2023/12/22 06:52:21;;;;;;;6.80;2.13;;;;;;;5.06;100.00;98881.25;5055542;28;20436;-68
2023/12/22 06:54:47;;;;;;;5.87;1.87;;;;;;;5.10;100.00;98870.84;5052196;28;20559;-69
2023/12/22 06:57:12;;;;;;;13.80;2.47;;;;;;;5.14;100.00;98881.69;5057827;28;20185;-70
2023/12/22 06:59:38;;;;;;;7.37;2.27;;;;;;;5.21;100.00;98862.63;5052068;28;20299;-70
2023/12/22 07:02:04;;;;;;;6.20;1.70;;;;;;;5.31;100.00;98880.81;5056270;28;20686;-68
2023/12/22 07:04:29;;;;;;;10.13;2.47;;;;;;;5.36;100.00;98868.66;5051067;28;20195;-68
2023/12/22 07:06:54;;;;;;;9.87;2.23;;;;;;;5.42;100.00;98870.88;5059161;28;20246;-69
2023/12/22 07:09:19;;;;;;;9.10;1.90;;;;;;;5.42;100.00;98898.09;5065908;28;20181;-67
2023/12/22 07:11:52;;;;;;;6.37;2.10;;;;;;;5.41;100.00;98887.09;5065242;28;20224;-67
2023/12/22 07:14:18;;;;;;;6.77;2.50;;;;;;;5.43;100.00;98903.13;5050090;28;20620;-68
2023/12/22 07:16:43;;;;;;;6.03;2.20;;;;;;;5.52;100.00;98903.53;5061673;28;20185;-68
2023/12/22 07:19:09;;;;;;;9.67;2.33;;;;;;;5.54;100.00;98906.84;5062945;28;20679;-77
2023/12/22 07:21:34;;;;;;;10.97;2.10;;;;;;;5.59;100.00;98907.41;5057696;28;20224;-69
2023/12/22 07:24:00;;;;;;;9.50;2.27;;;;;;;5.68;100.00;98914.59;5060461;28;20181;-69
2023/12/22 07:26:26;;;;;;;9.37;2.53;;;;;;;5.77;100.00;98921.75;5069612;28;20188;-70
2023/12/22 07:28:54;;;;;;;7.00;1.93;;;;;;;5.88;100.00;98920.34;5067376;28;20265;-68
2023/12/22 07:31:20;;;;;;;5.33;1.70;;;;;;;5.87;100.00;98911.88;5055152;28;20221;-69
2023/12/22 07:33:45;;;;;;;3.90;1.73;;;;;;;5.91;100.00;98926.09;5062701;28;20209;-67
2023/12/22 07:36:10;;;;;;;7.47;2.00;;;;;;;5.92;100.00;98949.91;5068346;28;20220;-69
2023/12/22 07:38:36;;;;;;;4.70;1.90;;;;;;;6.07;100.00;98955.94;5059556;28;20529;-70
2023/12/22 07:41:01;;;;;;;7.23;2.00;;;;;;;6.01;100.00;98956.28;5055745;28;20225;-71
2023/12/22 07:43:29;;;;;;;4.27;1.57;;;;;;;6.11;100.00;98965.06;5064125;28;20658;-69
2023/12/22 07:45:54;;;;;;;9.53;2.40;;;;;;;6.21;100.00;98967.94;5047301;28;20181;-69
2023/12/22 07:48:19;;;;;;;4.87;1.50;;;;;;;6.21;100.00;98965.41;5059814;28;20184;-70
2023/12/22 07:50:45;;;;;;;4.17;1.40;;;;;;;6.34;100.00;98968.94;5061945;28;20368;-69
2023/12/22 07:53:11;;;;;;;8.03;1.83;;;;;;;6.37;100.00;98955.16;5066842;28;20654;-68
2023/12/22 07:55:38;;;;;;;4.17;1.50;;;;;;;6.39;100.00;98959.28;5067830;28;20204;-72
2023/12/22 07:58:04;;;;;;;4.33;1.60;;;;;;;6.36;100.00;98958.63;5063274;28;20573;-70
2023/12/22 08:00:29;;;;;;;7.40;1.87;;;;;;;6.45;100.00;98961.50;5065169;28;20278;-69
2023/12/22 08:02:54;;;;;;;5.80;1.83;;;;;;;6.45;100.00;98953.84;5076949;28;20177;-69
2023/12/22 08:05:19;;;;;;;5.03;1.87;;;;;;;6.65;100.00;98964.66;5068248;28;20671;-68
2023/12/22 08:07:45;;;;;;;4.53;1.20;;;;;;;6.59;100.00;98962.47;5067483;28;20212;-69
2023/12/22 08:10:11;;;;;;;8.87;1.73;;;;;;;6.67;100.00;98974.78;5050329;28;20640;-68
2023/12/22 08:12:37;;;;;;;4.63;1.33;;;;;;;6.78;100.00;98988.63;5054204;28;20181;-70
2023/12/22 08:15:03;;;;;;;10.20;2.20;;;;;;;6.71;100.00;98995.00;5056948;28;20201;-69
2023/12/22 08:17:28;;;;;;;6.90;1.50;;;;;;;6.62;100.00;98990.38;5055330;28;20184;-75
2023/12/22 08:19:54;;;;;;;5.23;1.63;;;;;;;6.55;100.00;98992.47;5056016;28;20217;-64
2023/12/22 08:22:19;;;;;;;5.70;1.70;;;;;;;6.44;100.00;98999.91;5059984;28;20651;-70
2023/12/22 08:24:45;;;;;;;3.47;1.80;;;;;;;6.22;100.00;99015.56;5058283;28;20181;-68
2023/12/22 08:27:10;;;;;;;7.43;2.00;;;;;;;6.10;100.00;99010.22;5056198;28;20178;-68
2023/12/22 08:29:35;;;;;;;7.50;1.90;;;;;;;6.08;100.00;99014.56;5051883;28;20189;-69
2023/12/22 08:32:01;;;;;;;5.37;2.00;;;;;;;6.17;100.00;99009.91;5021434;28;20315;-69
2023/12/22 08:34:27;;;;;;;5.23;1.77;;;;;;;6.25;100.00;98998.34;5055480;28;20243;-73
2023/12/22 08:36:52;;;;;;;7.00;2.30;;;;;;;6.21;100.00;98996.03;5060965;28;20291;-70
2023/12/22 08:39:18;;;;;;;5.97;1.77;;;;;;;6.27;100.00;98988.88;5061109;28;20273;-70
2023/12/22 08:41:43;;;;;;;4.03;1.80;;;;;;;6.27;100.00;98985.50;5051751;28;20290;-70
2023/12/22 08:44:09;;;;;;;6.37;2.00;;;;;;;6.44;100.00;98980.28;5065696;28;20208;-69
2023/12/22 08:46:35;;;;;;;5.10;1.70;;;;;;;6.51;100.00;98974.81;5063505;28;20546;-68
2023/12/22 08:49:01;;;;;;;4.57;1.73;;;;;;;6.56;100.00;98981.34;5067265;28;20169;-68
2023/12/22 08:51:27;;;;;;;5.70;1.47;;;;;;;6.54;100.00;98975.47;5054464;28;20259;-72
2023/12/22 08:53:54;;;;;;;5.23;1.50;;;;;;;6.55;100.00;98984.81;5060224;28;20224;-71
2023/12/22 08:56:21;;;;;;;5.37;1.70;;;;;;;6.60;100.00;98989.66;5056843;28;20660;-71
2023/12/22 08:58:46;;;;;;;8.23;2.03;;;;;;;6.62;100.00;98993.78;5055416;28;20276;-72
2023/12/22 09:01:15;;;;;;;2.93;1.20;;;;;;;6.63;100.00;99005.63;5053990;28;20628;-72
2023/12/22 09:03:46;;;;;;;2.90;1.47;;;;;;;6.68;100.00;99014.78;5038592;28;20178;-70
2023/12/22 09:06:14;;;;;;;5.93;1.70;;;;;;;6.69;100.00;99016.44;5067786;28;20185;-72
2023/12/22 09:08:39;;;;;;;5.43;1.40;;;;;;;6.62;100.00;99018.47;5055141;28;20177;-68
2023/12/22 09:11:04;;;;;;;5.83;1.87;;;;;;;6.70;100.00;99016.34;5043305;28;20274;-70
2023/12/22 09:13:30;;;;;;;6.47;1.70;;;;;;;6.76;100.00;99016.00;5058766;28;20189;-71
2023/12/22 09:15:57;;;;;;;3.57;2.07;;;;;;;6.70;100.00;99011.22;5066403;28;20203;-70
2023/12/22 09:18:23;;;;;;;7.03;2.60;;;;;;;6.74;100.00;98999.91;5065257;28;20227;-71
2023/12/22 09:20:48;;;;;;;11.83;2.57;;;;;;;6.85;100.00;99001.88;5063517;28;20329;-71
2023/12/22 09:23:14;;;;;;;9.07;2.27;;;;;;;6.87;100.00;99002.63;5068273;28;20263;-69
2023/12/22 09:25:39;;;;;;;4.53;1.90;;;;;;;6.91;100.00;98996.41;5070645;28;20181;-71
2023/12/22 09:28:04;;;;;;;7.00;2.30;;;;;;;6.95;100.00;98995.31;5066756;28;20181;-70
2023/12/22 09:30:30;;;;;;;7.03;2.40;;;;;;;6.89;100.00;98990.56;5056915;28;20289;-69
2023/12/22 09:32:55;;;;;;;7.17;2.27;;;;;;;6.98;100.00;98993.50;5067862;28;20536;-70
2023/12/22 09:35:21;;;;;;;6.90;2.67;;;;;;;7.03;100.00;98996.63;5069626;28;20193;-70
2023/12/22 09:37:47;;;;;;;9.57;2.40;;;;;;;6.99;100.00;98992.59;5060268;28;20189;-70
2023/12/22 09:40:12;;;;;;;7.93;2.40;;;;;;;7.07;100.00;98996.34;5043499;28;20543;-70
2023/12/22 09:42:40;;;;;;;8.90;2.37;;;;;;;7.08;100.00;98992.91;5050445;28;20197;-70
2023/12/22 09:45:08;;;;;;;9.90;2.30;;;;;;;7.17;100.00;98995.81;5050526;28;20181;-70
2023/12/22 09:47:35;;;;;;;11.60;3.03;;;;;;;7.29;100.00;98989.16;5051332;28;20269;-71
2023/12/22 09:50:01;;;;;;;8.47;2.73;;;;;;;7.33;100.00;98991.47;5056193;28;20203;-70
2023/12/22 09:52:29;;;;;;;6.33;2.27;;;;;;;7.39;100.00;98985.16;5049054;28;20328;-71
2023/12/22 09:54:55;;;;;;;10.47;2.63;;;;;;;7.37;100.00;98990.34;5068065;28;20552;-69
2023/12/22 09:57:23;;;;;;;8.73;2.30;;;;;;;7.37;100.00;98992.09;5070663;28;20184;-69
2023/12/22 09:59:51;;;;;;;15.40;3.13;;;;;;;7.47;100.00;98970.16;5069881;28;20238;-70
2023/12/22 10:02:17;;;;;;;7.97;3.63;;;;;;;7.48;100.00;98973.53;5060551;28;20286;-70
2023/12/22 10:04:42;;;;;;;9.83;2.53;;;;;;;7.56;100.00;98964.47;5071198;28;20211;-69
2023/12/22 10:07:09;;;;;;;13.63;3.67;;;;;;;7.63;100.00;98959.84;5070718;28;20226;-69
2023/12/22 10:09:36;;;;;;;10.77;2.80;;;;;;;7.78;100.00;98965.75;5057477;28;20185;-69
2023/12/22 10:12:04;;;;;;;14.30;3.30;;;;;;;7.87;100.00;98956.69;5062391;28;20273;-71
2023/12/22 10:14:31;;;;;;;12.73;3.10;;;;;;;7.95;100.00;98939.13;5070826;28;20205;-69
2023/12/22 10:16:57;;;;;;;12.00;3.20;;;;;;;8.10;100.00;98939.06;5059155;28;20648;-70
2023/12/22 10:19:22;;;;;;;9.97;2.90;;;;;;;8.13;100.00;98938.88;5055627;28;20224;-69
2023/12/22 10:21:48;;;;;;;9.20;3.27;;;;;;;8.24;100.00;98941.59;5074418;28;20702;-69
2023/12/22 10:24:41;;;;;;;11.03;3.13;;;;;;;8.14;100.00;98928.53;5068808;28;20180;-69
2023/12/22 10:27:07;;;;;;;10.17;3.20;;;;;;;8.22;100.00;98931.44;5068932;28;20180;-70
2023/12/22 10:29:32;;;;;;;11.60;2.97;;;;;;;8.22;100.00;98931.44;5070608;28;20591;-69
2023/12/22 10:32:00;;;;;;;7.87;3.13;;;;;;;8.22;100.00;98915.22;5074870;28;20310;-69
2023/12/22 10:34:25;;;;;;;11.43;3.10;;;;;;;8.18;100.00;98911.22;5070824;28;20180;-68
2023/12/22 10:36:50;;;;;;;9.30;3.03;;;;;;;8.17;100.00;98899.34;5068085;28;20181;-68
2023/12/22 10:39:16;;;;;;;15.43;3.30;;;;;;;8.15;100.00;98896.88;5070650;28;20169;-68
2023/12/22 10:41:41;;;;;;;10.60;2.90;;;;;;;8.30;100.00;98914.72;5061284;28;20322;-68
2023/12/22 10:44:06;;;;;;;10.13;2.77;;;;;;;8.18;100.00;98914.59;5059248;28;20216;-70
2023/12/22 10:46:33;;;;;;;8.33;2.80;;;;;;;8.28;100.00;98893.53;5068034;28;20193;-71
2023/12/22 10:48:59;;;;;;;13.17;3.13;;;;;;;8.29;100.00;98885.75;5069839;28;20642;-69
2023/12/22 10:51:24;;;;;;;7.43;2.37;;;;;;;8.33;100.00;98881.25;5073238;28;20228;-68
2023/12/22 10:53:51;;;;;;;10.87;2.50;;;;;;;8.33;100.00;98878.69;5079383;28;20179;-69
2023/12/22 10:56:16;;;;;;;7.77;2.47;;;;;;;8.37;100.00;98865.56;5072736;28;20239;-68
2023/12/22 10:58:42;;;;;;;9.87;2.80;;;;;;;8.40;100.00;98873.06;5073871;28;20267;-68
2023/12/22 11:01:10;;;;;;;9.27;3.43;;;;;;;8.42;100.00;98869.56;5071199;28;20647;-68
2023/12/22 11:03:39;;;;;;;7.43;2.93;;;;;;;8.37;100.00;98868.13;5053629;28;20192;-68
2023/12/22 11:06:06;;;;;;;9.93;2.80;;;;;;;8.39;100.00;98876.53;5066364;28;20185;-69
2023/12/22 11:08:35;;;;;;;7.73;2.27;;;;;;;8.45;100.00;98871.94;5053096;28;20177;-70
2023/12/22 11:11:10;;;;;;;11.33;2.67;;;;;;;8.40;100.00;98862.00;5059136;28;20301;-69
2023/12/22 11:13:37;;;;;;;11.03;3.23;;;;;;;8.40;100.00;98857.69;5072023;28;20184;-70
2023/12/22 11:16:03;;;;;;;8.87;2.83;;;;;;;8.40;100.00;98855.13;5072787;28;20208;-69
2023/12/22 11:18:29;;;;;;;9.33;1.83;;;;;;;8.31;100.00;98850.59;5074007;28;20530;-69
2023/12/22 11:20:56;;;;;;;6.63;2.73;;;;;;;8.40;100.00;98847.44;5069863;28;20239;-70
2023/12/22 11:23:23;;;;;;;7.83;2.80;;;;;;;8.35;100.00;98841.78;5082464;28;20603;-70
2023/12/22 11:25:53;;;;;;;8.77;2.97;;;;;;;8.37;100.00;98842.53;5072912;28;20703;-69